Flight Track Log - Related Links

Times and Time Zones

All times are in EDT time to prevent confusion due to time zone crossing. See the N606FT flight status page for this flight to view local times or setup timezone preferences in your user account.

Time Position Orientation Groundspeed Altitude Reporting Facility
EDT Latitude Longitude Course Direction KTS MPH feet Rate Location/Type
Sat 09:20:26 PM 26.7417 -81.8761 31° Northeast 116 133 2,600  Level Miami Center
Sat 09:21:00 PM 27.0640 -81.5472 31° Northeast  Level Estimated
Sat 09:21:26 PM 26.7669 -81.8725 North 111 128 2,600  Level Miami Center
Sat 09:22:00 PM 27.1030 -81.5212 31° Northeast  Level Estimated
Sat 09:22:26 PM 26.8006 -81.8669 North 117 135 2,700  Level Miami Center
Sat 09:23:00 PM 27.1421 -81.4952 31° Northeast  Level Estimated
Sat 09:23:26 PM 26.8242 -81.8492 34° Northeast 128 147 2,600  Level Miami Center
Sat 09:24:00 PM 27.1811 -81.4692 31° Northeast  Level Estimated
Sat 09:24:26 PM 26.8558 -81.8342 23° Northeast 116 133 2,600  Level Miami Center
Sat 09:25:00 PM 27.2201 -81.4432 31° Northeast  Level Estimated
Sat 09:25:26 PM 26.8814 -81.8169 31° Northeast 111 128 2,600  Level Miami Center
Sat 09:26:26 PM 26.9114 -81.7994 27° Northeast 111 128 2,600  Level Miami Center
Sat 09:27:26 PM 26.9389 -81.7867 23° Northeast 111 128 2,600  Level Miami Center
Sat 09:28:26 PM 26.9667 -81.7714 26° Northeast 111 128 2,600  Level Miami Center
Sat 09:29:26 PM 26.9922 -81.7539 31° Northeast 111 128 2,600  Level Miami Center
Sat 09:30:26 PM 27.0242 -81.7367 26° Northeast 111 128 2,600  Level Miami Center
Sat 09:31:38 PM 27.0583 -81.7147 30° Northeast 111 128 2,600  Level Miami Center
Sat 09:32:38 PM 27.0839 -81.6972 31° Northeast 111 128 2,600 -50 Level Miami Center
Sat 09:33:38 PM 27.1136 -81.6775 31° Northeast 111 128 2,500 -50 Descending Miami Center
Sat 09:34:38 PM 27.1392 -81.6622 28° Northeast 111 128 2,500  Level Miami Center
Sat 09:35:38 PM 27.1606 -81.6467 33° Northeast 106 122 2,500  Level Miami Center
Sat 09:36:38 PM 27.1842 -81.6289 34° Northeast 100 115 2,500  Level Miami Center
Sat 09:37:38 PM 27.2119 -81.6139 26° Northeast 100 115 2,500  Level Miami Center
Sat 09:38:38 PM 27.2375 -81.5986 28° Northeast 100 115 2,500  Level Miami Center
Sat 09:39:38 PM 27.2650 -81.5833 26° Northeast 100 115 2,500  Level Miami Center
Sat 09:40:38 PM 27.2906 -81.5703 24° Northeast 100 115 2,500  Level Miami Center
Sat 09:41:38 PM 27.3200 -81.5597 18° North 100 115 2,500  Level Miami Center
Sat 09:42:38 PM 27.3475 -81.5492 19° North 100 115 2,500  Level Miami Center
Sat 09:43:38 PM 27.3728 -81.5411 16° North 100 115 2,500  Level Miami Center
Sat 09:44:38 PM 27.4044 -81.5328 13° North 100 115 2,500  Level Miami Center
Sat 09:45:38 PM 27.4297 -81.5222 20° North 100 115 2,500 50 Level Miami Center
Sat 09:46:38 PM 27.4533 -81.5044 34° Northeast 100 115 2,600 50 Climbing Miami Center
Sat 09:47:38 PM 27.4769 -81.4819 40° Northeast 100 115 2,600 -50 Level Miami Center
Sat 09:48:38 PM 27.5006 -81.4619 37° Northeast 105 121 2,500 -50 Descending Miami Center
Sat 09:49:38 PM 27.5264 -81.4419 34° Northeast 105 121 2,500  Level Miami Center
Sat 09:50:38 PM 27.5478 -81.4217 40° Northeast 105 121 2,500 -50 Level Miami Center
Sat 09:51:38 PM 27.5714 -81.4017 37° Northeast 105 121 2,400  Descending Miami Center
Sat 09:52:38 PM 27.5953 -81.3767 43° Northeast 105 121 2,500 50 Climbing Miami Center
Sat 09:53:38 PM 27.6189 -81.3567 37° Northeast 105 121 2,500  Level Miami Center
Sat 09:54:38 PM 27.6444 -81.3389 32° Northeast 105 121 2,500  Level Miami Center
Sat 09:55:38 PM 27.6658 -81.3186 40° Northeast 105 121 2,500  Level Miami Center
Sat 09:56:38 PM 27.6894 -81.3008 34° Northeast 105 121 2,500  Level Miami Center
Sat 09:57:38 PM 27.7150 -81.2783 38° Northeast 105 121 2,500  Level Miami Center
Sat 09:58:38 PM 27.7386 -81.2558 40° Northeast 105 121 2,500 38 Level Miami Center
Sat 10:00:17 PM 27.7833 -81.2167 38° Northeast 103 119 2,600 38 Climbing Orlando TRACON
Sat 10:01:17 PM 27.8000 -81.2000 41° Northeast 102 117 2,600  Level Orlando TRACON
Sat 10:02:17 PM 27.8167 -81.1833 41° Northeast 103 119 2,600  Level Orlando TRACON
Sat 10:02:47 PM 27.8333 -81.1667 41° Northeast 103 119 2,600 56 Level Orlando TRACON
Sat 10:04:05 PM 27.8500 -81.1333 61° Northeast 104 120 2,700 45 Climbing Orlando TRACON
Sat 10:04:59 PM 27.8833 -81.1167 24° Northeast 103 119 2,700  Level Orlando TRACON
Sat 10:05:59 PM 27.9000 -81.1000 41° Northeast 105 121 2,700 -50 Level Orlando TRACON
Sat 10:06:59 PM 27.9167 -81.0667 60° Northeast 110 127 2,600 -100 Descending Orlando TRACON
Sat 10:07:59 PM 27.9500 -81.0500 24° Northeast 117 135 2,500 -50 Descending Orlando TRACON
Sat 10:08:59 PM 27.9667 -81.0167 60° Northeast 113 130 2,500 -50 Level Orlando TRACON
Sat 10:09:59 PM 27.9833 -81.0000 41° Northeast 111 128 2,400  Descending Orlando TRACON
Sat 10:10:59 PM 28.0167 -80.9833 24° Northeast 102 117 2,500 105 Climbing Orlando TRACON
Sat 10:11:53 PM 28.0333 -80.9667 41° Northeast 103 119 2,600 111 Climbing Orlando TRACON

Login

Don't have an account? Register now (free) for customized features, flight alerts, and more!